Main page
METAR-TAF:

METAR-TAF

Airports :

Cascais Municipal Aerodrome

Cascais, Portugal

latitude: 38-43-32N, longitude: 009-21-19W, elevation: 99 m

Current weather observation

The report was made 24 minutes ago, at 15:30 UTC
Wind 9 kt from the West/Southwest, varying between Southwest and West/Northwest
Temperature 16°C
Humidity 55%
Pressure 1015 hPa
Visibility 10 km or more
Few clouds at a height of 4000 ft

METAR: LPCS 281530Z 25009KT 220V300 9999 FEW040 16/07 Q1015

Time: 15:54 (15:54 UTC)

Forecast

The report was made 1 hour and 54 minutes ago, at 14:00 UTC
Forecast valid from 28 at 15 UTC to 28 at 24 UTC
Wind 5 kt from variable directions
Visibility 10 km or more
no clouds below 1500 m and no cumulonimbus
Becoming
from 28 at 15 UTC to 28 at 18 UTC
Wind 10 kt from the North/Northwest
Probability 30% :
Temporary
from 28 at 18 UTC to 28 at 22 UTC
Wind 15 kt from the North with gusts up to 27 kt

TAF: LPCS 281400Z 2815/2824 VRB05KT CAVOK BECMG 2815/2818 34010KT PROB30 TEMPO 2818/2822 35015G27KT

Weather observations and forecasts of more than 4000 airports (METAR and TAF reports).

The available stations are represented by yellow and red dots on the map.

Hover mouse over dot to see the name of the station.

Then click to see weather observations and forecasts.

To change the map : click on the green buttons with a black cross to zoom in, on the green button with a dash to zoom out, or on the green arrows for adjacent maps.


METAR-TAF: